createdAt,value
2023-01-02T00:03:01.342Z,100121.28
2023-01-02T00:07:04.518Z,100117.94
2023-01-02T00:11:08.891Z,100120.53
2023-01-02T00:15:12.509Z,100124.94
2023-01-02T00:19:15.573Z,100125.94
2023-01-02T00:23:18.643Z,100131.63
2023-01-02T00:27:23.153Z,100144.72
2023-01-02T00:31:26.582Z,100128.09
2023-01-02T00:35:29.638Z,100139.63
2023-01-02T00:39:32.696Z,100141.31
2023-01-02T00:43:37.291Z,100155.91
2023-01-02T00:47:40.391Z,100177.84
2023-01-02T00:51:43.405Z,100186.94
2023-01-02T00:55:46.880Z,100189.13
2023-01-02T00:59:51.280Z,100199.22
2023-01-02T01:03:54.294Z,100198.78
2023-01-02T01:07:58.269Z,100197.56
2023-01-02T01:12:04.893Z,100189.94
2023-01-02T01:16:12.363Z,100182.66
2023-01-02T01:20:15.754Z,100160.72
2023-01-02T01:24:18.946Z,100148.88
2023-01-02T01:28:22.204Z,100148.22
2023-01-02T01:32:26.553Z,100152.13
2023-01-02T01:36:29.841Z,100147.94
2023-01-02T01:40:39.055Z,100153.31
2023-01-02T01:44:47.494Z,100128.75
2023-01-02T01:48:58.809Z,100134.09
2023-01-02T01:53:07.206Z,100142.34
2023-01-02T01:57:16.963Z,100158.28
2023-01-02T02:01:20.131Z,100168.84
2023-01-02T02:05:27.687Z,100173.03
2023-01-02T02:09:34.362Z,100186.09
2023-01-02T02:13:37.468Z,100206.44
2023-01-02T02:17:53.036Z,100202.59
2023-01-02T02:22:20.805Z,100203.09
2023-01-02T02:26:52.029Z,100188.03
2023-01-02T02:30:58.584Z,100167.00
2023-01-02T02:35:07.228Z,100177.63
2023-01-02T02:39:22.644Z,100181.44
2023-01-02T02:43:34.809Z,100171.53
2023-01-02T02:47:45.507Z,100191.84
2023-01-02T02:51:54.359Z,100195.91
2023-01-02T02:56:01.068Z,100203.44
2023-01-02T03:00:05.649Z,100222.63
2023-01-02T03:04:17.849Z,100201.59
2023-01-02T03:08:33.045Z,100214.34
2023-01-02T03:12:46.024Z,100215.19
2023-01-02T03:16:55.706Z,100218.50
2023-01-02T03:21:07.815Z,100217.91
2023-01-02T03:25:13.775Z,100214.22
2023-01-02T03:29:19.600Z,100219.69
2023-01-02T03:33:26.960Z,100216.94
2023-01-02T03:37:35.207Z,100224.44
2023-01-02T03:41:43.389Z,100226.31
2023-01-02T03:45:52.252Z,100228.75
2023-01-02T03:49:58.990Z,100232.56
2023-01-02T03:54:04.960Z,100232.09
2023-01-02T03:58:15.640Z,100219.91
2023-01-02T04:02:28.266Z,100222.78
2023-01-02T04:06:35.851Z,100219.81
2023-01-02T04:10:42.025Z,100218.63
2023-01-02T04:14:48.196Z,100208.25
2023-01-02T04:18:56.315Z,100211.34
2023-01-02T04:23:03.315Z,100219.69
2023-01-02T04:27:13.433Z,100220.41
2023-01-02T04:31:20.689Z,100213.38
2023-01-02T04:35:25.354Z,100206.22
2023-01-02T04:39:29.401Z,100195.63
2023-01-02T04:43:34.437Z,100202.81
2023-01-02T04:47:37.504Z,100207.00
2023-01-02T04:51:40.589Z,100209.03
2023-01-02T04:55:43.768Z,100211.66
2023-01-02T04:59:48.222Z,100220.03
2023-01-02T05:03:53.331Z,100228.25
2023-01-02T05:07:56.496Z,100227.53
2023-01-02T05:11:59.605Z,100246.44
2023-01-02T05:16:04.464Z,100242.59
2023-01-02T05:20:10.171Z,100247.22
2023-01-02T05:24:14.204Z,100246.00
2023-01-02T05:28:17.253Z,100262.34
2023-01-02T05:32:21.630Z,100263.75
2023-01-02T05:36:26.248Z,100281.22
2023-01-02T05:40:29.355Z,100268.56
2023-01-02T05:44:32.417Z,100272.13
2023-01-02T05:48:36.808Z,100276.66
2023-01-02T05:52:45.106Z,100281.31
2023-01-02T05:56:49.011Z,100288.00
2023-01-02T06:00:53.304Z,100294.31
2023-01-02T06:04:57.919Z,100295.84
2023-01-02T06:09:01.380Z,100297.69
2023-01-02T06:13:04.474Z,100311.72
2023-01-02T06:17:07.500Z,100310.66
2023-01-02T06:21:13.654Z,100329.78
2023-01-02T06:25:16.939Z,100330.94
2023-01-02T06:29:19.979Z,100338.41
2023-01-02T06:33:23.067Z,100365.09
2023-01-02T06:37:27.417Z,100344.06
2023-01-02T06:41:32.548Z,100345.88
2023-01-02T06:45:35.610Z,100350.47
2023-01-02T06:49:38.639Z,100370.44
2023-01-02T06:53:44.424Z,100364.56
2023-01-02T06:57:47.455Z,100350.00
2023-01-02T07:01:50.585Z,100366.09
2023-01-02T07:05:53.672Z,100364.78
2023-01-02T07:09:58.265Z,100374.53
2023-01-02T07:14:01.347Z,100389.63
2023-01-02T07:18:04.477Z,100396.50
2023-01-02T07:22:07.511Z,100403.50
2023-01-02T07:26:12.584Z,100414.13
2023-01-02T07:30:16.352Z,100418.19
2023-01-02T07:34:19.374Z,100426.09
2023-01-02T07:38:22.378Z,100431.41
2023-01-02T07:42:26.805Z,100434.16
2023-01-02T07:46:29.889Z,100441.53
2023-01-02T07:50:32.957Z,100445.38
2023-01-02T07:54:36.263Z,100456.16
2023-01-02T07:58:46.660Z,100476.00
2023-01-02T08:02:50.036Z,100474.56
2023-01-02T08:06:53.130Z,100501.09
2023-01-02T08:10:56.189Z,100531.06
2023-01-02T08:15:00.667Z,100510.41
2023-01-02T08:19:03.707Z,100523.47
2023-01-02T08:23:06.756Z,100541.66
2023-01-02T08:27:10.039Z,100560.84
2023-01-02T08:31:16.242Z,100577.38
2023-01-02T08:35:34.337Z,100598.88
2023-01-02T08:39:40.676Z,100601.59
2023-01-02T08:43:43.750Z,100609.59
2023-01-02T08:47:48.188Z,100608.97
2023-01-02T08:51:51.233Z,100613.00
2023-01-02T08:55:54.327Z,100625.81
2023-01-02T08:59:57.379Z,100643.06
2023-01-02T09:04:07.764Z,100645.16
2023-01-02T09:08:14.441Z,100650.22
2023-01-02T09:12:17.493Z,100657.56
2023-01-02T09:16:20.614Z,100642.66
2023-01-02T09:20:25.093Z,100651.50
2023-01-02T09:24:28.304Z,100649.81
2023-01-02T09:28:33.650Z,100666.63
2023-01-02T09:32:37.254Z,100677.16
2023-01-02T09:36:41.681Z,100678.84
2023-01-02T09:40:48.856Z,100683.47
2023-01-02T09:44:55.733Z,100689.97
2023-01-02T09:49:00.755Z,100703.66
2023-01-02T09:53:05.582Z,100715.88
2023-01-02T09:57:21.791Z,100729.38
2023-01-02T10:01:33.375Z,100745.38
2023-01-02T10:06:07.195Z,100738.00
2023-01-02T10:10:18.363Z,100738.22
2023-01-02T10:14:38.787Z,100738.63
2023-01-02T10:18:53.039Z,100734.22
2023-01-02T10:23:00.707Z,100739.03
2023-01-02T10:27:07.110Z,100741.53
2023-01-02T10:31:13.382Z,100740.91
2023-01-02T10:35:27.466Z,100744.06
2023-01-02T10:39:33.483Z,100749.97
2023-01-02T10:43:38.056Z,100751.66
2023-01-02T10:47:41.193Z,100744.72
2023-01-02T10:51:50.874Z,100735.66
2023-01-02T10:55:54.082Z,100734.78
2023-01-02T11:00:00.961Z,100746.72
2023-01-02T11:04:12.930Z,100755.16
2023-01-02T11:08:18.211Z,100751.56
2023-01-02T11:12:26.982Z,100761.66
2023-01-02T11:16:33.264Z,100780.72
2023-01-02T11:20:38.447Z,100785.78
2023-01-02T11:25:00.601Z,100780.53
2023-01-02T11:29:08.908Z,100783.56
2023-01-02T11:33:26.072Z,100778.56
2023-01-02T11:37:29.995Z,100780.88
2023-01-02T11:41:56.402Z,100788.28
2023-01-02T11:45:59.553Z,100802.63
2023-01-02T11:50:04.572Z,100801.81
2023-01-02T11:54:14.759Z,100799.72
2023-01-02T11:58:24.371Z,100789.41
2023-01-02T12:02:36.300Z,100791.31
2023-01-02T12:06:54.144Z,100797.63
2023-01-02T12:11:10.153Z,100799.31
2023-01-02T12:15:42.690Z,100797.19
2023-01-02T12:20:05.104Z,100801.00
2023-01-02T12:24:44.186Z,100814.47
2023-01-02T12:29:06.905Z,100796.38
2023-01-02T12:33:35.850Z,100806.69
2023-01-02T12:37:48.890Z,100804.78
2023-01-02T12:42:04.849Z,100813.81
2023-01-02T12:46:24.917Z,100806.00
2023-01-02T12:50:57.762Z,100802.41
2023-01-02T12:55:16.872Z,100805.56
2023-01-02T12:59:57.334Z,100819.00
2023-01-02T13:04:10.304Z,100840.44
2023-01-02T13:08:18.935Z,100853.66
2023-01-02T13:12:24.471Z,100868.78
2023-01-02T13:16:28.364Z,100862.69
2023-01-02T13:20:45.435Z,100865.59
2023-01-02T13:24:50.245Z,100855.84
2023-01-02T13:29:03.785Z,100855.94
2023-01-02T13:33:21.359Z,100854.25
2023-01-02T13:37:28.715Z,100860.09
2023-01-02T13:41:58.883Z,100865.94
2023-01-02T13:46:04.258Z,100873.50
2023-01-02T13:50:14.013Z,100859.19
2023-01-02T13:54:21.184Z,100861.31
2023-01-02T13:58:29.088Z,100877.28
2023-01-02T14:02:32.300Z,100882.75
2023-01-02T14:06:37.130Z,100888.75
2023-01-02T14:10:45.219Z,100894.41
2023-01-02T14:14:53.457Z,100915.44
2023-01-02T14:19:17.426Z,100916.50
2023-01-02T14:23:27.966Z,100924.88
2023-01-02T14:27:34.421Z,100925.47
2023-01-02T14:31:38.023Z,100920.16
2023-01-02T14:35:50.006Z,100937.44
2023-01-02T14:39:53.220Z,100947.13
2023-01-02T14:43:58.682Z,100937.84
2023-01-02T14:48:08.288Z,100942.44
2023-01-02T14:52:16.845Z,100928.13
2023-01-02T14:56:22.855Z,100934.84
2023-01-02T15:00:32.052Z,100948.28
2023-01-02T15:04:40.486Z,100944.25
2023-01-02T15:08:49.462Z,100955.81
2023-01-02T15:13:08.241Z,100970.03
2023-01-02T15:17:16.921Z,100986.44
2023-01-02T15:21:24.679Z,100999.06
2023-01-02T15:25:34.348Z,101002.66
2023-01-02T15:29:47.478Z,100995.28
2023-01-02T15:33:56.751Z,101007.47
2023-01-02T15:37:59.853Z,101004.91
2023-01-02T15:42:09.973Z,101016.88
2023-01-02T15:46:16.421Z,101023.34
2023-01-02T15:50:23.897Z,101024.66
2023-01-02T15:54:28.151Z,101039.78
2023-01-02T15:58:33.328Z,101030.16
2023-01-02T16:02:43.132Z,101041.09
2023-01-02T16:06:47.816Z,101044.22
2023-01-02T16:11:01.090Z,101063.03
2023-01-02T16:15:05.039Z,101098.75
2023-01-02T16:19:17.500Z,101096.75
2023-01-02T16:23:22.902Z,101092.63
2023-01-02T16:27:29.538Z,101084.44
2023-01-02T16:31:51.604Z,101087.91
2023-01-02T16:36:00.604Z,101099.66
2023-01-02T16:40:59.828Z,101112.84
2023-01-02T16:45:07.217Z,101119.13
2023-01-02T16:49:15.465Z,101134.81
2023-01-02T16:53:23.699Z,101124.94
2023-01-02T16:57:28.463Z,101142.16
2023-01-02T17:01:31.698Z,101151.53
2023-01-02T17:05:39.534Z,101156.47
2023-01-02T17:09:42.612Z,101163.63
2023-01-02T17:13:46.979Z,101166.34
2023-01-02T17:17:51.748Z,101171.13
2023-01-02T17:21:54.939Z,101166.34
2023-01-02T17:25:58.017Z,101175.72
2023-01-02T17:30:03.494Z,101173.88
2023-01-02T17:34:06.883Z,101188.03
2023-01-02T17:38:10.030Z,101187.25
2023-01-02T17:42:13.054Z,101201.19
2023-01-02T17:46:58.419Z,101196.09
2023-01-02T17:50:41.018Z,101207.00
2023-01-02T17:54:44.081Z,101213.19
2023-01-02T17:58:47.916Z,101229.88
2023-01-02T18:02:53.004Z,101228.22
2023-01-02T18:06:56.232Z,101235.44
2023-01-02T18:10:59.305Z,101231.31
2023-01-02T18:15:06.079Z,101244.22
2023-01-02T18:19:14.992Z,101255.44
2023-01-02T18:23:18.373Z,101275.06
2023-01-02T18:27:24.345Z,101269.84
2023-01-02T18:31:33.896Z,101278.53
2023-01-02T18:35:56.852Z,101287.72
2023-01-02T18:40:02.008Z,101292.16
2023-01-02T18:44:18.100Z,101298.09
2023-01-02T18:48:23.113Z,101306.09
2023-01-02T18:52:30.084Z,101313.06
2023-01-02T18:56:33.499Z,101317.63
2023-01-02T19:00:39.781Z,101325.66
2023-01-02T19:04:43.387Z,101322.22
2023-01-02T19:08:48.032Z,101337.19
2023-01-02T19:13:08.160Z,101339.59
2023-01-02T19:17:20.656Z,101339.25
2023-01-02T19:21:28.916Z,101355.59
2023-01-02T19:25:33.339Z,101355.25
2023-01-02T19:29:38.437Z,101359.84
2023-01-02T19:33:43.679Z,101378.38
2023-01-02T19:37:47.488Z,101376.34
2023-01-02T19:42:09.311Z,101379.75
2023-01-02T19:46:12.472Z,101385.34
2023-01-02T19:50:18.677Z,101396.75
2023-01-02T19:54:22.897Z,101404.75
2023-01-02T19:58:28.306Z,101409.06
2023-01-02T20:02:32.257Z,101412.50
2023-01-02T20:06:36.705Z,101419.38
2023-01-02T20:10:40.461Z,101418.34
2023-01-02T20:14:45.882Z,101413.22
2023-01-02T20:18:49.677Z,101431.47
2023-01-02T20:22:53.077Z,101433.34
2023-01-02T20:26:56.473Z,101438.47
2023-01-02T20:31:01.125Z,101453.47
2023-01-02T20:35:04.518Z,101455.88
2023-01-02T20:39:08.526Z,101466.03
2023-01-02T20:43:11.619Z,101468.81
2023-01-02T20:47:16.575Z,101470.84
2023-01-02T20:51:19.743Z,101475.28
2023-01-02T20:55:22.860Z,101487.72
2023-01-02T20:59:26.771Z,101494.03
2023-01-02T21:03:31.386Z,101500.66
2023-01-02T21:07:34.733Z,101502.34
2023-01-02T21:11:38.183Z,101500.50
2023-01-02T21:15:46.236Z,101513.44
2023-01-02T21:19:50.794Z,101505.47
2023-01-02T21:23:54.271Z,101516.53
2023-01-02T21:27:57.441Z,101508.69
2023-01-02T21:32:00.554Z,101516.88
2023-01-02T21:36:08.628Z,101525.75
2023-01-02T21:40:12.749Z,101518.44
2023-01-02T21:44:15.816Z,101527.09
2023-01-02T21:48:18.919Z,101536.66
2023-01-02T21:52:24.441Z,101530.19
2023-01-02T21:56:27.504Z,101539.38
2023-01-02T22:00:30.987Z,101542.63
2023-01-02T22:04:34.995Z,101544.69
2023-01-02T22:08:39.696Z,101541.25
2023-01-02T22:12:43.103Z,101544.50
2023-01-02T22:16:46.556Z,101545.16
2023-01-02T22:20:49.680Z,101559.66
2023-01-02T22:24:54.401Z,101565.94
2023-01-02T22:28:58.115Z,101574.66
2023-01-02T22:33:01.213Z,101569.88
2023-01-02T22:37:04.365Z,101561.03
2023-01-02T22:41:09.582Z,101569.88
2023-01-02T22:45:18.133Z,101589.78
2023-01-02T22:49:24.032Z,101587.75
2023-01-02T22:53:28.854Z,101598.31
2023-01-02T22:57:33.261Z,101599.00
2023-01-02T23:01:38.829Z,101596.59
2023-01-02T23:05:42.896Z,101589.78
2023-01-02T23:09:46.235Z,101603.41
2023-01-02T23:13:56.379Z,101598.84
2023-01-02T23:18:17.277Z,101596.78
2023-01-02T23:22:20.363Z,101605.81
2023-01-02T23:26:26.994Z,101610.56
2023-01-02T23:30:31.392Z,101618.41
2023-01-02T23:34:34.740Z,101618.22
2023-01-02T23:38:38.264Z,101626.25
2023-01-02T23:42:41.298Z,101619.44
2023-01-02T23:46:46.912Z,101619.97
2023-01-02T23:50:57.443Z,101629.31
2023-01-02T23:55:00.456Z,101618.41
2023-01-02T23:59:09.176Z,101612.47
